Private Wetterstation Wechselburg
Wetterdaten: Sonntag, 25.09.2016
Datum Zeit Temp. +2m Bodentemp. Temp.+5cm Temp. Wind Windchill X Diff Temp. Feuchte +2m Feuchte +5cm Sonnenschein Luftdruck Regen Wind Richtung Richtung Sonnenschein Taupunkt Windchill Windben
25.09.2016 00:00 9,6 C 27,8 C 11,2 C 10,2 C 10,2 C 0,6 C 86 % 90 % 0 % 1021,6 hPa 0,0 l/m 0,0 km/h (0 Bft) O-NO 67 0 min 7,4 C 10,2 C 0,0 km/h (0 Bft)
25.09.2016 00:05 9,8 C 27,7 C 11,2 C 10,4 C 10,4 C 0,6 C 86 % 90 % 0 % 1021,6 hPa 0,0 l/m 0,0 km/h (0 Bft) O-NO 67 0 min 7,6 C 10,4 C 0,0 km/h (0 Bft)
25.09.2016 00:10 9,8 C 27,7 C 11,1 C 10,4 C 10,4 C 0,6 C 86 % 90 % 0 % 1021,6 hPa 0,0 l/m 0,0 km/h (0 Bft) NW 315 0 min 7,6 C 10,4 C 0,0 km/h (0 Bft)
25.09.2016 00:15 9,7 C 27,7 C 11,1 C 10,2 C 10,2 C 0,5 C 86 % 90 % 0 % 1021,6 hPa 0,0 l/m 0,0 km/h (0 Bft) NW 315 0 min 7,5 C 10,2 C 0,0 km/h (0 Bft)
25.09.2016 00:20 9,6 C 27,7 C 11,1 C 10,1 C 10,1 C 0,5 C 86 % 90 % 0 % 1021,6 hPa 0,0 l/m 0,0 km/h (0 Bft) W-SW 247 0 min 7,4 C 10,1 C 0,0 km/h (0 Bft)
25.09.2016 00:25 9,5 C 27,7 C 11,1 C 10,0 C 10,0 C 0,5 C 86 % 90 % 0 % 1021,4 hPa 0,0 l/m 0,0 km/h (0 Bft) W-SW 247 0 min 7,3 C 10,0 C 0,0 km/h (0 Bft)
25.09.2016 00:30 9,4 C 27,7 C 10,9 C 10,0 C 10,0 C 0,6 C 86 % 90 % 0 % 1021,4 hPa 0,0 l/m 0,0 km/h (0 Bft) W-SW 247 0 min 7,2 C 10,0 C 0,0 km/h (0 Bft)
25.09.2016 00:35 9,3 C 27,6 C 10,9 C 9,8 C 9,8 C 0,5 C 86 % 90 % 0 % 1021,4 hPa 0,0 l/m 0,0 km/h (0 Bft) W-SW 247 0 min 7,1 C 9,8 C 0,0 km/h (0 Bft)
25.09.2016 00:40 9,2 C 27,6 C 10,8 C 9,7 C 9,7 C 0,5 C 86 % 90 % 0 % 1021,4 hPa 0,0 l/m 0,0 km/h (0 Bft) W-SW 247 0 min 7,0 C 9,7 C 0,0 km/h (0 Bft)
25.09.2016 00:45 9,2 C 27,6 C 10,8 C 9,6 C 9,6 C 0,4 C 86 % 90 % 0 % 1021,4 hPa 0,0 l/m 0,0 km/h (0 Bft) W-SW 247 0 min 7,0 C 9,6 C 0,0 km/h (0 Bft)
25.09.2016 00:50 9,1 C 27,6 C 10,8 C 9,6 C 9,6 C 0,5 C 86 % 90 % 0 % 1021,4 hPa 0,0 l/m 0,0 km/h (0 Bft) W-SW 247 0 min 6,9 C 9,6 C 0,0 km/h (0 Bft)
25.09.2016 00:55 9,1 C 27,6 C 10,7 C 9,5 C 9,5 C 0,4 C 86 % 90 % 0 % 1021,4 hPa 0,0 l/m 0,0 km/h (0 Bft) W-SW 247 0 min 6,9 C 9,5 C 0,0 km/h (0 Bft)
25.09.2016 01:00 8,9 C 27,5 C 10,7 C 9,5 C 9,5 C 0,6 C 86 % 90 % 0 % 1021,4 hPa 0,0 l/m 0,0 km/h (0 Bft) W-SW 247 0 min 6,7 C 9,5 C 0,0 km/h (0 Bft)
25.09.2016 01:05 8,8 C 27,6 C 10,7 C 9,3 C 9,3 C 0,5 C 86 % 90 % 0 % 1021,2 hPa 0,0 l/m 0,0 km/h (0 Bft) W-SW 247 0 min 6,6 C 9,3 C 0,0 km/h (0 Bft)
25.09.2016 01:10 8,8 C 27,6 C 10,6 C 9,2 C 9,2 C 0,4 C 86 % 90 % 0 % 1021,2 hPa 0,0 l/m 0,0 km/h (0 Bft) W-SW 247 0 min 6,6 C 9,2 C 0,0 km/h (0 Bft)
25.09.2016 01:15 8,7 C 27,6 C 10,4 C 9,0 C 9,0 C 0,3 C 86 % 90 % 0 % 1021,2 hPa 0,0 l/m 0,0 km/h (0 Bft) W-SW 247 0 min 6,5 C 9,0 C 0,0 km/h (0 Bft)
25.09.2016 01:20 8,6 C 27,6 C 10,4 C 9,1 C 9,1 C 0,5 C 86 % 90 % 0 % 1021,2 hPa 0,0 l/m 0,0 km/h (0 Bft) W-SW 247 0 min 6,4 C 9,1 C 0,0 km/h (0 Bft)
25.09.2016 01:25 8,7 C 27,6 C 10,5 C 9,1 C 9,1 C 0,4 C 86 % 90 % 0 % 1020,9 hPa 0,0 l/m 0,0 km/h (0 Bft) W-SW 247 0 min 6,5 C 9,1 C 0,0 km/h (0 Bft)
25.09.2016 01:30 8,7 C 27,5 C 10,4 C 9,0 C 9,0 C 0,3 C 87 % 90 % 0 % 1020,9 hPa 0,0 l/m 0,0 km/h (0 Bft) W-SW 247 0 min 6,7 C 9,0 C 0,0 km/h (0 Bft)
25.09.2016 01:35 8,6 C 27,6 C 10,3 C 9,0 C 9,0 C 0,4 C 87 % 90 % 0 % 1020,9 hPa 0,0 l/m 0,0 km/h (0 Bft) W-SW 247 0 min 6,6 C 9,0 C 0,0 km/h (0 Bft)
25.09.2016 01:40 8,7 C 27,5 C 10,3 C 9,0 C 9,0 C 0,3 C 87 % 90 % 0 % 1020,9 hPa 0,0 l/m 0,0 km/h (0 Bft) W-SW 247 0 min 6,7 C 9,0 C 0,0 km/h (0 Bft)
25.09.2016 01:45 8,7 C 27,5 C 10,2 C 9,2 C 9,2 C 0,5 C 86 % 91 % 0 % 1021,5 hPa 0,0 l/m 0,0 km/h (0 Bft) W-SW 247 0 min 6,5 C 9,2 C 0,0 km/h (0 Bft)
25.09.2016 01:50 8,6 C 27,5 C 10,3 C 9,1 C 9,1 C 0,5 C 86 % 91 % 0 % 1021,5 hPa 0,0 l/m 0,0 km/h (0 Bft) W-SW 247 0 min 6,4 C 9,1 C 0,0 km/h (0 Bft)
25.09.2016 01:55 8,7 C 27,5 C 10,1 C 9,1 C 9,1 C 0,4 C 86 % 91 % 0 % 1021,5 hPa 0,0 l/m 0,0 km/h (0 Bft) W-SW 247 0 min 6,5 C 9,1 C 0,0 km/h (0 Bft)
25.09.2016 02:00 8,5 C 27,5 C 10,1 C 9,0 C 9,0 C 0,5 C 86 % 91 % 0 % 1021,5 hPa 0,0 l/m 0,0 km/h (0 Bft) W-SW 247 0 min 6,3 C 9,0 C 0,0 km/h (0 Bft)
25.09.2016 02:05 8,5 C 27,5 C 10,1 C 8,9 C 8,9 C 0,4 C 86 % 91 % 0 % 1021,6 hPa 0,0 l/m 0,0 km/h (0 Bft) W-SW 247 0 min 6,3 C 8,9 C 0,0 km/h (0 Bft)
25.09.2016 02:10 8,4 C 27,5 C 10,0 C 8,9 C 8,9 C 0,5 C 86 % 91 % 0 % 1021,6 hPa 0,0 l/m 0,0 km/h (0 Bft) W-SW 247 0 min 6,2 C 8,9 C 0,0 km/h (0 Bft)
25.09.2016 02:15 8,4 C 27,5 C 10,0 C 8,8 C 8,8 C 0,4 C 86 % 91 % 0 % 1021,6 hPa 0,0 l/m 0,0 km/h (0 Bft) W-SW 247 0 min 6,2 C 8,8 C 0,0 km/h (0 Bft)
25.09.2016 02:20 8,3 C 27,4 C 10,0 C 8,7 C 8,7 C 0,4 C 86 % 91 % 0 % 1021,6 hPa 0,0 l/m 0,0 km/h (0 Bft) W-SW 247 0 min 6,1 C 8,7 C 0,0 km/h (0 Bft)
25.09.2016 02:25 8,3 C 27,4 C 10,0 C 8,7 C 8,7 C 0,4 C 86 % 91 % 0 % 1021,4 hPa 0,0 l/m 0,0 km/h (0 Bft) W-SW 247 0 min 6,1 C 8,7 C 0,0 km/h (0 Bft)
25.09.2016 02:30 8,3 C 27,4 C 9,9 C 8,7 C 8,7 C 0,4 C 86 % 90 % 0 % 1021,4 hPa 0,0 l/m 0,0 km/h (0 Bft) W-SW 247 0 min 6,1 C 8,7 C 0,0 km/h (0 Bft)
25.09.2016 02:35 8,3 C 27,4 C 9,9 C 8,8 C 8,8 C 0,5 C 86 % 90 % 0 % 1021,4 hPa 0,0 l/m 0,0 km/h (0 Bft) W-SW 247 0 min 6,1 C 8,8 C 0,0 km/h (0 Bft)
25.09.2016 02:40 8,3 C 27,4 C 9,9 C 8,7 C 8,7 C 0,4 C 86 % 90 % 0 % 1021,4 hPa 0,0 l/m 0,0 km/h (0 Bft) W-SW 247 0 min 6,1 C 8,7 C 0,0 km/h (0 Bft)
25.09.2016 02:45 8,0 C 27,4 C 9,9 C 8,5 C 8,5 C 0,5 C 86 % 90 % 0 % 1021,5 hPa 0,0 l/m 0,0 km/h (0 Bft) W-SW 247 0 min 5,8 C 8,5 C 0,0 km/h (0 Bft)
25.09.2016 02:50 8,1 C 27,4 C 9,7 C 8,4 C 8,4 C 0,3 C 86 % 90 % 0 % 1021,5 hPa 0,0 l/m 0,0 km/h (0 Bft) W-SW 247 0 min 5,9 C 8,4 C 0,0 km/h (0 Bft)
25.09.2016 02:55 7,9 C 27,4 C 9,6 C 8,3 C 8,3 C 0,4 C 86 % 90 % 0 % 1021,5 hPa 0,0 l/m 0,0 km/h (0 Bft) W-SW 247 0 min 5,7 C 8,3 C 0,0 km/h (0 Bft)
25.09.2016 03:00 7,9 C 27,3 C 9,7 C 8,1 C 8,1 C 0,2 C 86 % 90 % 0 % 1021,5 hPa 0,0 l/m 0,0 km/h (0 Bft) W-SW 247 0 min 5,7 C 8,1 C 0,0 km/h (0 Bft)
25.09.2016 03:05 7,7 C 27,3 C 9,6 C 8,0 C 8,0 C 0,3 C 86 % 90 % 0 % 1021,6 hPa 0,0 l/m 0,0 km/h (0 Bft) W-SW 247 0 min 5,5 C 8,0 C 0,0 km/h (0 Bft)
25.09.2016 03:10 7,7 C 27,3 C 9,5 C 7,9 C 7,9 C 0,2 C 86 % 90 % 0 % 1021,6 hPa 0,0 l/m 0,0 km/h (0 Bft) W-SW 247 0 min 5,5 C 7,9 C 0,0 km/h (0 Bft)
25.09.2016 03:15 7,6 C 27,3 C 9,5 C 7,9 C 7,9 C 0,3 C 86 % 90 % 0 % 1021,6 hPa 0,0 l/m 0,0 km/h (0 Bft) W-SW 247 0 min 5,4 C 7,9 C 0,0 km/h (0 Bft)
25.09.2016 03:20 7,6 C 27,3 C 9,5 C 8,0 C 8,0 C 0,4 C 86 % 90 % 0 % 1021,6 hPa 0,0 l/m 0,0 km/h (0 Bft) W-SW 247 0 min 5,4 C 8,0 C 0,0 km/h (0 Bft)
25.09.2016 03:25 7,6 C 27,3 C 9,5 C 8,1 C 8,1 C 0,5 C 86 % 90 % 0 % 1021,5 hPa 0,0 l/m 0,0 km/h (0 Bft) W-SW 247 0 min 5,4 C 8,1 C 0,0 km/h (0 Bft)
25.09.2016 03:30 7,6 C 27,3 C 9,3 C 8,0 C 8,0 C 0,4 C 86 % 90 % 0 % 1021,5 hPa 0,0 l/m 0,0 km/h (0 Bft) W-SW 247 0 min 5,4 C 8,0 C 0,0 km/h (0 Bft)
25.09.2016 03:35 7,7 C 27,3 C 9,3 C 8,1 C 8,1 C 0,4 C 86 % 90 % 0 % 1021,5 hPa 0,0 l/m 0,0 km/h (0 Bft) W-SW 247 0 min 5,5 C 8,1 C 0,0 km/h (0 Bft)
25.09.2016 03:40 7,6 C 27,2 C 9,3 C 8,0 C 8,0 C 0,4 C 86 % 90 % 0 % 1021,5 hPa 0,0 l/m 0,0 km/h (0 Bft) W-SW 247 0 min 5,4 C 8,0 C 0,0 km/h (0 Bft)
25.09.2016 03:45 7,5 C 27,2 C 9,2 C 7,9 C 7,9 C 0,4 C 86 % 90 % 0 % 1020,8 hPa 0,0 l/m 0,0 km/h (0 Bft) W-SW 247 0 min 5,3 C 7,9 C 0,0 km/h (0 Bft)
25.09.2016 03:50 7,5 C 27,2 C 9,2 C 7,8 C 7,8 C 0,3 C 86 % 90 % 0 % 1020,8 hPa 0,0 l/m 0,0 km/h (0 Bft) W-SW 247 0 min 5,3 C 7,8 C 0,0 km/h (0 Bft)
25.09.2016 03:55 7,3 C 27,3 C 9,3 C 7,7 C 7,7 C 0,4 C 86 % 90 % 0 % 1020,8 hPa 0,0 l/m 0,0 km/h (0 Bft) W-SW 247 0 min 5,1 C 7,7 C 0,0 km/h (0 Bft)
25.09.2016 04:00 7,3 C 27,3 C 9,2 C 7,5 C 7,5 C 0,2 C 86 % 90 % 0 % 1020,8 hPa 0,0 l/m 0,0 km/h (0 Bft) W-SW 247 0 min 5,1 C 7,5 C 0,0 km/h (0 Bft)
25.09.2016 04:05 7,3 C 27,3 C 9,1 C 7,6 C 7,6 C 0,3 C 86 % 90 % 0 % 1021,2 hPa 0,0 l/m 0,0 km/h (0 Bft) W-SW 247 0 min 5,1 C 7,6 C 0,0 km/h (0 Bft)
25.09.2016 04:10 7,2 C 27,3 C 9,0 C 7,7 C 7,7 C 0,5 C 86 % 90 % 0 % 1021,2 hPa 0,0 l/m 0,0 km/h (0 Bft) W-SW 247 0 min 5,0 C 7,7 C 0,0 km/h (0 Bft)
25.09.2016 04:15 7,1 C 27,2 C 9,1 C 7,5 C 7,5 C 0,4 C 86 % 90 % 0 % 1021,2 hPa 0,0 l/m 0,0 km/h (0 Bft) W-SW 247 0 min 4,9 C 7,5 C 0,0 km/h (0 Bft)
25.09.2016 04:20 7,0 C 27,2 C 9,1 C 7,5 C 7,5 C 0,5 C 86 % 91 % 0 % 1021,2 hPa 0,0 l/m 0,0 km/h (0 Bft) W-SW 247 0 min 4,8 C 7,5 C 0,0 km/h (0 Bft)
25.09.2016 04:25 7,1 C 27,2 C 8,9 C 7,3 C 7,3 C 0,2 C 86 % 91 % 0 % 1021,1 hPa 0,0 l/m 0,0 km/h (0 Bft) W-SW 247 0 min 4,9 C 7,3 C 0,0 km/h (0 Bft)
25.09.2016 04:30 7,0 C 27,2 C 8,9 C 7,3 C 7,3 C 0,3 C 86 % 91 % 0 % 1021,1 hPa 0,0 l/m 0,0 km/h (0 Bft) W-SW 247 0 min 4,8 C 7,3 C 0,0 km/h (0 Bft)
25.09.2016 04:35 6,9 C 27,2 C 8,8 C 7,2 C 7,2 C 0,3 C 86 % 91 % 0 % 1021,1 hPa 0,0 l/m 0,0 km/h (0 Bft) W-SW 247 0 min 4,7 C 7,2 C 0,0 km/h (0 Bft)
25.09.2016 04:40 6,8 C 27,2 C 8,9 C 7,2 C 7,2 C 0,4 C 86 % 91 % 0 % 1021,1 hPa 0,0 l/m 0,0 km/h (0 Bft) W-SW 247 0 min 4,6 C 7,2 C 0,0 km/h (0 Bft)
25.09.2016 04:45 6,8 C 27,2 C 8,7 C 7,3 C 7,3 C 0,5 C 86 % 91 % 0 % 1021,1 hPa 0,0 l/m 0,0 km/h (0 Bft) W-SW 247 0 min 4,6 C 7,3 C 0,0 km/h (0 Bft)
25.09.2016 04:50 6,8 C 27,1 C 8,7 C 7,2 C 7,2 C 0,4 C 86 % 91 % 0 % 1021,1 hPa 0,0 l/m 0,0 km/h (0 Bft) W-SW 247 0 min 4,6 C 7,2 C 0,0 km/h (0 Bft)
25.09.2016 04:55 6,7 C 27,1 C 8,6 C 7,0 C 7,0 C 0,3 C 86 % 91 % 0 % 1021,1 hPa 0,0 l/m 0,0 km/h (0 Bft) W-SW 247 0 min 4,5 C 7,0 C 0,0 km/h (0 Bft)
25.09.2016 05:00 6,7 C 27,1 C 8,7 C 7,0 C 7,0 C 0,3 C 86 % 91 % 0 % 1021,1 hPa 0,0 l/m 0,0 km/h (0 Bft) W-SW 247 0 min 4,5 C 7,0 C 0,0 km/h (0 Bft)
25.09.2016 05:05 6,7 C 27,1 C 8,6 C 7,0 C 7,0 C 0,3 C 86 % 91 % 0 % 1020,4 hPa 0,0 l/m 0,0 km/h (0 Bft) W-SW 247 0 min 4,5 C 7,0 C 0,0 km/h (0 Bft)
25.09.2016 05:10 6,7 C 27,1 C 8,7 C 7,0 C 7,0 C 0,3 C 86 % 91 % 0 % 1020,4 hPa 0,0 l/m 0,0 km/h (0 Bft) W-SW 247 0 min 4,5 C 7,0 C 0,0 km/h (0 Bft)
25.09.2016 05:15 6,5 C 27,0 C 8,5 C 6,9 C 6,9 C 0,4 C 86 % 91 % 0 % 1020,4 hPa 0,0 l/m 0,0 km/h (0 Bft) W-SW 247 0 min 4,3 C 6,9 C 0,0 km/h (0 Bft)
25.09.2016 05:20 6,4 C 27,1 C 8,5 C 6,9 C 6,9 C 0,5 C 86 % 90 % 0 % 1020,4 hPa 0,0 l/m 0,0 km/h (0 Bft) W-SW 247 0 min 4,2 C 6,9 C 0,0 km/h (0 Bft)
25.09.2016 05:25 6,5 C 27,1 C 8,4 C 6,8 C 6,8 C 0,3 C 86 % 91 % 0 % 1020,9 hPa 0,0 l/m 0,0 km/h (0 Bft) W-SW 247 0 min 4,3 C 6,8 C 0,0 km/h (0 Bft)
25.09.2016 05:30 6,4 C 27,1 C 8,4 C 6,7 C 6,7 C 0,3 C 86 % 91 % 0 % 1020,9 hPa 0,0 l/m 0,0 km/h (0 Bft) W-SW 247 0 min 4,2 C 6,7 C 0,0 km/h (0 Bft)
25.09.2016 05:35 6,3 C 27,1 C 8,4 C 6,6 C 6,6 C 0,3 C 87 % 91 % 0 % 1020,9 hPa 0,0 l/m 0,0 km/h (0 Bft) W-SW 247 0 min 4,3 C 6,6 C 0,0 km/h (0 Bft)
25.09.2016 05:40 6,2 C 27,1 C 8,3 C 6,6 C 6,6 C 0,4 C 86 % 91 % 0 % 1020,9 hPa 0,0 l/m 0,0 km/h (0 Bft) W-SW 247 0 min 4,0 C 6,6 C 0,0 km/h (0 Bft)
25.09.2016 05:45 6,3 C 27,0 C 8,3 C 6,7 C 6,7 C 0,4 C 87 % 91 % 0 % 1021,0 hPa 0,0 l/m 0,0 km/h (0 Bft) W-SW 247 0 min 4,3 C 6,7 C 0,0 km/h (0 Bft)
25.09.2016 05:50 6,3 C 27,0 C 8,2 C 6,7 C 6,7 C 0,4 C 87 % 91 % 0 % 1021,0 hPa 0,0 l/m 0,0 km/h (0 Bft) W-SW 247 0 min 4,3 C 6,7 C 0,0 km/h (0 Bft)
25.09.2016 05:55 6,3 C 27,0 C 8,3 C 6,7 C 6,7 C 0,4 C 87 % 91 % 0 % 1021,0 hPa 0,0 l/m 0,0 km/h (0 Bft) W-SW 247 0 min 4,3 C 6,7 C 0,0 km/h (0 Bft)
25.09.2016 06:00 6,1 C 27,0 C 8,2 C 6,7 C 6,7 C 0,6 C 87 % 91 % 0 % 1021,0 hPa 0,0 l/m 0,0 km/h (0 Bft) W-SW 247 0 min 4,1 C 6,7 C 0,0 km/h (0 Bft)
25.09.2016 06:05 6,0 C 27,0 C 8,2 C 6,5 C 6,5 C 0,5 C 87 % 91 % 0 % 1020,9 hPa 0,0 l/m 0,0 km/h (0 Bft) W-SW 247 0 min 4,0 C 6,5 C 0,0 km/h (0 Bft)
25.09.2016 06:10 6,0 C 27,0 C 8,2 C 6,5 C 6,5 C 0,5 C 87 % 91 % 0 % 1020,9 hPa 0,0 l/m 0,0 km/h (0 Bft) W-SW 247 0 min 4,0 C 6,5 C 0,0 km/h (0 Bft)
25.09.2016 06:15 6,0 C 26,9 C 8,1 C 6,5 C 6,5 C 0,5 C 87 % 91 % 0 % 1020,9 hPa 0,0 l/m 0,0 km/h (0 Bft) W-SW 247 0 min 4,0 C 6,5 C 0,0 km/h (0 Bft)
25.09.2016 06:20 6,0 C 27,0 C 8,1 C 6,5 C 6,5 C 0,5 C 87 % 91 % 0 % 1020,9 hPa 0,0 l/m 0,0 km/h (0 Bft) W-SW 247 0 min 4,0 C 6,5 C 0,0 km/h (0 Bft)
25.09.2016 06:25 5,9 C 27,0 C 8,0 C 6,5 C 6,5 C 0,6 C 87 % 91 % 0 % 1020,7 hPa 0,0 l/m 0,0 km/h (0 Bft) W-SW 247 0 min 3,9 C 6,5 C 0,0 km/h (0 Bft)
25.09.2016 06:30 6,1 C 27,0 C 8,0 C 6,6 C 6,6 C 0,5 C 87 % 91 % 0 % 1020,7 hPa 0,0 l/m 0,0 km/h (0 Bft) W-SW 247 0 min 4,1 C 6,6 C 0,0 km/h (0 Bft)
25.09.2016 06:35 6,1 C 27,0 C 8,0 C 6,7 C 6,7 C 0,6 C 87 % 91 % 0 % 1020,7 hPa 0,0 l/m 0,0 km/h (0 Bft) W-SW 247 0 min 4,1 C 6,7 C 0,0 km/h (0 Bft)
25.09.2016 06:40 6,0 C 26,9 C 8,0 C 6,6 C 6,6 C 0,6 C 87 % 91 % 0 % 1020,7 hPa 0,0 l/m 0,0 km/h (0 Bft) W-SW 247 0 min 4,0 C 6,6 C 0,0 km/h (0 Bft)
25.09.2016 06:45 6,1 C 26,9 C 8,1 C 6,5 C 6,5 C 0,4 C 87 % 91 % 0 % 1020,6 hPa 0,0 l/m 0,0 km/h (0 Bft) W-SW 247 0 min 4,1 C 6,5 C 0,0 km/h (0 Bft)
25.09.2016 06:50 6,1 C 26,9 C 8,0 C 6,5 C 6,5 C 0,4 C 87 % 91 % 0 % 1020,6 hPa 0,0 l/m 0,0 km/h (0 Bft) W-SW 247 0 min 4,1 C 6,5 C 0,0 km/h (0 Bft)
25.09.2016 06:55 6,0 C 26,9 C 8,0 C 6,4 C 6,4 C 0,4 C 87 % 91 % 0 % 1020,6 hPa 0,0 l/m 0,0 km/h (0 Bft) W-SW 247 0 min 4,0 C 6,4 C 0,0 km/h (0 Bft)
25.09.2016 07:00 5,9 C 26,9 C 8,0 C 6,5 C 6,5 C 0,6 C 87 % 91 % 0 % 1020,6 hPa 0,0 l/m 0,0 km/h (0 Bft) W-SW 247 0 min 3,9 C 6,5 C 0,0 km/h (0 Bft)
25.09.2016 07:05 6,0 C 26,9 C 7,9 C 6,5 C 6,5 C 0,5 C 87 % 91 % 0 % 1020,9 hPa 0,0 l/m 0,0 km/h (0 Bft) W-SW 247 0 min 4,0 C 6,5 C 0,0 km/h (0 Bft)
25.09.2016 07:10 6,0 C 26,9 C 8,0 C 6,5 C 6,5 C 0,5 C 87 % 91 % 0 % 1020,9 hPa 0,0 l/m 0,0 km/h (0 Bft) W-SW 247 0 min 4,0 C 6,5 C 0,0 km/h (0 Bft)
25.09.2016 07:15 5,9 C 26,9 C 8,1 C 6,6 C 6,6 C 0,7 C 87 % 91 % 18 % 1020,9 hPa 0,0 l/m 0,0 km/h (0 Bft) W-SW 247 5 min 3,9 C 6,6 C 0,0 km/h (0 Bft)
25.09.2016 07:20 6,0 C 26,8 C 8,0 C 6,7 C 6,7 C 0,7 C 87 % 91 % 18 % 1020,9 hPa 0,0 l/m 0,0 km/h (0 Bft) W-SW 247 5 min 4,0 C 6,7 C 0,0 km/h (0 Bft)
25.09.2016 07:25 6,2 C 26,8 C 8,1 C 7,0 C 7,0 C 0,8 C 87 % 91 % 21 % 1020,9 hPa 0,0 l/m 0,0 km/h (0 Bft) W-SW 247 5 min 4,2 C 7,0 C 0,0 km/h (0 Bft)
25.09.2016 07:30 6,3 C 26,8 C 8,1 C 7,0 C 7,0 C 0,7 C 87 % 91 % 18 % 1020,9 hPa 0,0 l/m 0,0 km/h (0 Bft) W-SW 247 5 min 4,3 C 7,0 C 0,0 km/h (0 Bft)
25.09.2016 07:35 6,3 C 26,8 C 8,0 C 7,1 C 7,1 C 0,8 C 87 % 91 % 21 % 1020,9 hPa 0,0 l/m 0,0 km/h (0 Bft) W-SW 247 5 min 4,3 C 7,1 C 0,0 km/h (0 Bft)
25.09.2016 07:45 6,3 C 26,8 C 8,2 C 7,8 C 7,8 C 1,5 C 87 % 91 % 39 % 1020,4 hPa 0,0 l/m 0,0 km/h (0 Bft) W-SW 247 10 min 4,3 C 7,8 C 0,0 km/h (0 Bft)
25.09.2016 07:50 6,4 C 26,8 C 8,2 C 8,5 C 8,5 C 2,1 C 88 % 91 % 55 % 1020,4 hPa 0,0 l/m 0,0 km/h (0 Bft) W-SW 247 5 min 4,6 C 8,5 C 0,0 km/h (0 Bft)
25.09.2016 07:55 6,7 C 26,8 C 8,4 C 9,9 C 9,9 C 3,2 C 88 % 91 % 84 % 1020,4 hPa 0,0 l/m 0,0 km/h (0 Bft) W-SW 247 5 min 4,9 C 9,9 C 0,0 km/h (0 Bft)
25.09.2016 08:00 7,1 C 26,8 C 8,5 C 10,6 C 10,6 C 3,5 C 88 % 91 % 92 % 1020,4 hPa 0,0 l/m 0,0 km/h (0 Bft) W-SW 247 5 min 5,2 C 10,6 C 0,0 km/h (0 Bft)
25.09.2016 08:05 7,6 C 26,8 C 8,7 C 11,7 C 11,7 C 4,1 C 88 % 91 % 100 % 1020,8 hPa 0,0 l/m 0,0 km/h (0 Bft) W-SW 247 5 min 5,7 C 11,7 C 0,0 km/h (0 Bft)
25.09.2016 08:10 7,8 C 26,7 C 8,7 C 12,0 C 12,0 C 4,2 C 89 % 91 % 100 % 1020,8 hPa 0,0 l/m 0,0 km/h (0 Bft) W-SW 247 5 min 6,1 C 12,0 C 0,0 km/h (0 Bft)
25.09.2016 08:15 8,0 C 26,7 C 8,9 C 11,8 C 11,8 C 3,8 C 89 % 91 % 100 % 1020,8 hPa 0,0 l/m 0,0 km/h (0 Bft) W-SW 247 5 min 6,3 C 11,8 C 0,0 km/h (0 Bft)
25.09.2016 08:20 8,3 C 26,7 C 8,9 C 11,2 C 11,2 C 2,9 C 89 % 90 % 76 % 1020,8 hPa 0,0 l/m 0,0 km/h (0 Bft) W-SW 247 5 min 6,6 C 11,2 C 0,0 km/h (0 Bft)
25.09.2016 08:25 8,4 C 26,7 C 9,1 C 10,6 C 10,6 C 2,2 C 89 % 90 % 58 % 1021,3 hPa 0,0 l/m 0,0 km/h (0 Bft) W-SW 247 5 min 6,7 C 10,6 C 0,0 km/h (0 Bft)
25.09.2016 08:30 8,5 C 26,7 C 9,2 C 10,6 C 10,6 C 2,1 C 89 % 90 % 55 % 1021,3 hPa 0,0 l/m 0,0 km/h (0 Bft) W-SW 247 0 min 6,8 C 10,6 C 0,0 km/h (0 Bft)
25.09.2016 08:35 8,6 C 26,7 C 9,5 C 10,6 C 10,6 C 2,0 C 89 % 90 % 53 % 1021,3 hPa 0,0 l/m 0,0 km/h (0 Bft) W-SW 247 0 min 6,9 C 10,6 C 0,0 km/h (0 Bft)
25.09.2016 08:40 8,5 C 26,7 C 9,5 C 10,4 C 10,4 C 1,9 C 89 % 90 % 50 % 1021,3 hPa 0,0 l/m 0,0 km/h (0 Bft) W-SW 247 0 min 6,8 C 10,4 C 0,0 km/h (0 Bft)
25.09.2016 08:45 8,6 C 26,7 C 9,5 C 10,4 C 10,4 C 1,8 C 89 % 90 % 47 % 1020,9 hPa 0,0 l/m 0,0 km/h (0 Bft) W-SW 247 0 min 6,9 C 10,4 C 0,0 km/h (0 Bft)
25.09.2016 08:50 8,6 C 26,7 C 9,7 C 10,6 C 10,6 C 2,0 C 89 % 90 % 53 % 1020,9 hPa 0,0 l/m 0,0 km/h (0 Bft) W-SW 247 0 min 6,9 C 10,6 C 0,0 km/h (0 Bft)
25.09.2016 08:55 8,8 C 26,7 C 10,0 C 11,0 C 11,0 C 2,2 C 89 % 91 % 58 % 1020,9 hPa 0,0 l/m 0,0 km/h (0 Bft) W-SW 247 0 min 7,1 C 11,0 C 0,0 km/h (0 Bft)
25.09.2016 09:00 8,8 C 26,7 C 10,1 C 11,1 C 11,1 C 2,3 C 89 % 91 % 61 % 1020,9 hPa 0,0 l/m 0,0 km/h (0 Bft) W-SW 247 0 min 7,1 C 11,1 C 0,0 km/h (0 Bft)
25.09.2016 09:05 9,1 C 26,7 C 10,4 C 11,3 C 11,3 C 2,2 C 90 % 90 % 58 % 1021,0 hPa 0,0 l/m 0,0 km/h (0 Bft) W-SW 247 0 min 7,5 C 11,3 C 0,0 km/h (0 Bft)
25.09.2016 09:10 9,2 C 26,6 C 10,6 C 11,5 C 11,5 C 2,3 C 90 % 90 % 61 % 1021,0 hPa 0,0 l/m 0,0 km/h (0 Bft) W-SW 247 0 min 7,6 C 11,5 C 0,0 km/h (0 Bft)
25.09.2016 09:15 9,5 C 26,6 C 10,9 C 12,0 C 12,0 C 2,5 C 90 % 90 % 66 % 1021,0 hPa 0,0 l/m 0,0 km/h (0 Bft) W-SW 247 0 min 7,9 C 12,0 C 0,0 km/h (0 Bft)
25.09.2016 09:20 9,7 C 26,6 C 11,1 C 12,6 C 12,6 C 2,9 C 90 % 90 % 76 % 1021,0 hPa 0,0 l/m 0,0 km/h (0 Bft) W-SW 247 0 min 8,1 C 12,6 C 0,0 km/h (0 Bft)
25.09.2016 09:25 9,8 C 26,5 C 11,2 C 13,0 C 13,0 C 3,2 C 90 % 90 % 84 % 1020,9 hPa 0,0 l/m 0,0 km/h (0 Bft) W-SW 247 0 min 8,2 C 13,0 C 0,0 km/h (0 Bft)
25.09.2016 09:30 10,0 C 26,5 C 11,4 C 13,2 C 13,2 C 3,2 C 90 % 90 % 84 % 1020,9 hPa 0,0 l/m 0,0 km/h (0 Bft) W-SW 247 0 min 8,4 C 13,2 C 0,0 km/h (0 Bft)
25.09.2016 09:35 10,3 C 26,5 C 11,6 C 13,6 C 13,6 C 3,3 C 90 % 90 % 87 % 1020,9 hPa 0,0 l/m 0,0 km/h (0 Bft) W-SW 247 5 min 8,7 C 13,6 C 0,0 km/h (0 Bft)
25.09.2016 09:40 10,4 C 26,5 C 11,9 C 13,7 C 13,7 C 3,3 C 90 % 90 % 87 % 1020,9 hPa 0,0 l/m 0,0 km/h (0 Bft) W-SW 247 5 min 8,8 C 13,7 C 0,0 km/h (0 Bft)
25.09.2016 09:45 10,7 C 26,5 C 12,0 C 14,1 C 14,1 C 3,4 C 90 % 90 % 89 % 1021,1 hPa 0,0 l/m 0,0 km/h (0 Bft) W-SW 247 5 min 9,1 C 14,1 C 0,0 km/h (0 Bft)
25.09.2016 09:50 10,9 C 26,5 C 12,1 C 14,1 C 14,1 C 3,2 C 90 % 90 % 84 % 1021,1 hPa 0,0 l/m 0,0 km/h (0 Bft) W-SW 247 0 min 9,3 C 14,1 C 0,0 km/h (0 Bft)
25.09.2016 09:55 11,1 C 26,5 C 12,3 C 14,1 C 14,1 C 3,0 C 90 % 90 % 79 % 1021,1 hPa 0,0 l/m 0,0 km/h (0 Bft) W-SW 247 0 min 9,5 C 14,1 C 0,0 km/h (0 Bft)
25.09.2016 10:00 11,2 C 26,5 C 12,4 C 14,1 C 14,1 C 2,9 C 90 % 90 % 76 % 1021,1 hPa 0,0 l/m 0,0 km/h (0 Bft) W-NW 292 0 min 9,6 C 14,1 C 0,0 km/h (0 Bft)
25.09.2016 10:05 11,3 C 26,4 C 12,5 C 14,1 C 14,1 C 2,8 C 90 % 90 % 74 % 1021,0 hPa 0,0 l/m 0,0 km/h (0 Bft) S-SW 202 0 min 9,7 C 14,1 C 0,0 km/h (0 Bft)
25.09.2016 10:10 11,4 C 26,4 C 12,6 C 14,2 C 14,2 C 2,8 C 90 % 90 % 74 % 1021,0 hPa 0,0 l/m 0,0 km/h (0 Bft) W 270 0 min 9,8 C 14,2 C 0,0 km/h (0 Bft)
25.09.2016 10:15 11,6 C 26,4 C 12,8 C 14,5 C 14,5 C 2,9 C 90 % 90 % 76 % 1021,0 hPa 0,0 l/m 0,0 km/h (0 Bft) NW 315 0 min 10,0 C 14,5 C 1,6 km/h (1 Bft)
25.09.2016 10:20 11,8 C 26,4 C 13,1 C 14,7 C 14,7 C 2,9 C 90 % 90 % 76 % 1021,0 hPa 0,0 l/m 0,0 km/h (0 Bft) NW 315 0 min 10,2 C 14,7 C 0,0 km/h (0 Bft)
25.09.2016 10:25 12,0 C 26,2 C 13,3 C 14,9 C 14,9 C 2,9 C 90 % 90 % 76 % 1021,0 hPa 0,0 l/m 0,0 km/h (0 Bft) W-SW 247 0 min 10,4 C 14,9 C 0,0 km/h (0 Bft)
25.09.2016 10:30 12,2 C 26,2 C 13,4 C 15,3 C 15,3 C 3,1 C 90 % 90 % 82 % 1021,0 hPa 0,0 l/m 0,0 km/h (0 Bft) W-SW 247 0 min 10,6 C 15,3 C 0,0 km/h (0 Bft)
25.09.2016 10:35 12,3 C 26,2 C 13,9 C 15,6 C 15,6 C 3,3 C 90 % 90 % 87 % 1021,0 hPa 0,0 l/m 0,2 km/h (0 Bft) W 270 5 min 10,7 C 15,6 C 1,9 km/h (1 Bft)
25.09.2016 10:40 12,5 C 26,1 C 14,1 C 15,7 C 15,7 C 3,2 C 90 % 90 % 84 % 1021,0 hPa 0,0 l/m 0,2 km/h (0 Bft) W-SW 247 0 min 10,9 C 15,7 C 0,0 km/h (0 Bft)
25.09.2016 10:45 12,9 C 26,2 C 14,3 C 16,0 C 16,0 C 3,1 C 90 % 90 % 82 % 1021,1 hPa 0,0 l/m 0,2 km/h (0 Bft) N-NO 22 0 min 11,3 C 16,0 C 2,4 km/h (1 Bft)
25.09.2016 10:50 13,1 C 26,2 C 14,4 C 16,2 C 16,2 C 3,1 C 90 % 90 % 82 % 1021,1 hPa 0,0 l/m 0,2 km/h (0 Bft) SW 225 0 min 11,5 C 16,2 C 0,0 km/h (0 Bft)
25.09.2016 10:55 13,2 C 26,2 C 14,6 C 16,6 C 16,6 C 3,4 C 90 % 90 % 89 % 1021,1 hPa 0,0 l/m 0,2 km/h (0 Bft) O-NO 67 5 min 11,6 C 16,6 C 2,6 km/h (1 Bft)
25.09.2016 11:00 13,4 C 26,2 C 14,8 C 16,8 C 16,8 C 3,4 C 90 % 90 % 89 % 1021,1 hPa 0,0 l/m 0,3 km/h (0 Bft) SO 135 5 min 11,8 C 16,8 C 0,0 km/h (0 Bft)
25.09.2016 11:05 13,7 C 26,2 C 15,1 C 17,1 C 17,1 C 3,4 C 90 % 90 % 89 % 1020,6 hPa 0,0 l/m 0,5 km/h (0 Bft) N-NO 22 5 min 12,1 C 17,1 C 3,5 km/h (1 Bft)
25.09.2016 11:10 14,0 C 26,2 C 15,2 C 17,4 C 17,4 C 3,4 C 90 % 90 % 89 % 1020,6 hPa 0,0 l/m 0,3 km/h (0 Bft) S 180 5 min 12,4 C 17,4 C 1,6 km/h (1 Bft)
25.09.2016 11:15 14,2 C 26,1 C 15,3 C 17,8 C 17,8 C 3,6 C 90 % 90 % 95 % 1020,6 hPa 0,0 l/m 0,2 km/h (0 Bft) S 180 5 min 12,6 C 17,8 C 2,7 km/h (1 Bft)
25.09.2016 11:20 14,5 C 26,1 C 15,6 C 18,0 C 18,0 C 3,5 C 89 % 89 % 92 % 1020,6 hPa 0,0 l/m 0,3 km/h (0 Bft) O-NO 67 5 min 12,7 C 18,0 C 4,3 km/h (1 Bft)
25.09.2016 11:25 15,4 C 26,1 C 15,9 C 18,4 C 18,4 C 3,0 C 88 % 89 % 79 % 1020,4 hPa 0,0 l/m 1,3 km/h (1 Bft) N-NW 337 0 min 13,4 C 18,4 C 4,5 km/h (1 Bft)
25.09.2016 11:30 15,9 C 26,1 C 16,1 C 18,7 C 18,7 C 2,8 C 87 % 88 % 74 % 1020,4 hPa 0,0 l/m 1,4 km/h (1 Bft) O-NO 67 0 min 13,7 C 18,7 C 0,0 km/h (0 Bft)
25.09.2016 11:35 15,9 C 26,1 C 16,4 C 19,0 C 19,0 C 3,1 C 84 % 87 % 82 % 1020,4 hPa 0,0 l/m 1,6 km/h (1 Bft) N-NW 337 0 min 13,2 C 19,0 C 5,3 km/h (1 Bft)
25.09.2016 11:40 16,3 C 26,1 C 16,5 C 19,1 C 19,1 C 2,8 C 81 % 86 % 74 % 1020,4 hPa 0,0 l/m 2,1 km/h (1 Bft) NO 45 0 min 13,0 C 19,1 C 4,7 km/h (1 Bft)
25.09.2016 11:45 16,9 C 26,1 C 16,6 C 19,5 C 19,5 C 2,6 C 80 % 85 % 68 % 1020,2 hPa 0,0 l/m 2,1 km/h (1 Bft) NO 45 0 min 13,4 C 19,5 C 6,4 km/h (2 Bft)
25.09.2016 11:50 17,6 C 26,1 C 16,8 C 19,6 C 19,6 C 2,0 C 78 % 85 % 53 % 1020,2 hPa 0,0 l/m 1,3 km/h (1 Bft) NO 45 0 min 13,7 C 19,6 C 1,8 km/h (1 Bft)
25.09.2016 11:55 18,3 C 26,2 C 16,9 C 19,6 C 19,6 C 1,3 C 74 % 84 % 34 % 1020,2 hPa 0,0 l/m 1,4 km/h (1 Bft) O-NO 67 0 min 13,6 C 19,6 C 9,5 km/h (2 Bft)
25.09.2016 12:00 18,7 C 26,2 C 17,1 C 19,7 C 19,7 C 1,0 C 71 % 82 % 26 % 1020,2 hPa 0,0 l/m 2,3 km/h (1 Bft) NO 45 0 min 13,3 C 19,7 C 5,8 km/h (2 Bft)
25.09.2016 12:05 18,9 C 26,2 C 17,5 C 19,8 C 19,8 C 0,9 C 71 % 82 % 24 % 1020,1 hPa 0,0 l/m 2,6 km/h (1 Bft) NO 45 0 min 13,5 C 19,8 C 3,7 km/h (1 Bft)
25.09.2016 12:10 19,1 C 26,2 C 17,8 C 20,0 C 20,0 C 0,9 C 71 % 81 % 24 % 1020,1 hPa 0,0 l/m 1,9 km/h (1 Bft) NO 45 0 min 13,7 C 20,0 C 3,4 km/h (1 Bft)
25.09.2016 12:15 19,4 C 26,2 C 18,2 C 20,2 C 20,2 C 0,8 C 66 % 79 % 21 % 1020,1 hPa 0,0 l/m 3,2 km/h (1 Bft) O 90 0 min 12,9 C 20,2 C 2,9 km/h (1 Bft)
25.09.2016 12:20 19,6 C 26,2 C 18,5 C 20,5 C 20,5 C 0,9 C 67 % 78 % 24 % 1020,1 hPa 0,0 l/m 3,1 km/h (1 Bft) N 360 0 min 13,3 C 20,5 C 2,3 km/h (1 Bft)
25.09.2016 12:25 19,6 C 26,2 C 18,4 C 20,7 C 20,7 C 1,1 C 67 % 77 % 29 % 1020,0 hPa 0,0 l/m 1,0 km/h (0 Bft) O-NO 67 0 min 13,3 C 20,7 C 0,0 km/h (0 Bft)
25.09.2016 12:30 19,7 C 26,1 C 18,5 C 20,8 C 20,8 C 1,1 C 66 % 77 % 29 % 1020,0 hPa 0,0 l/m 0,6 km/h (0 Bft) NO 45 0 min 13,2 C 20,8 C 0,0 km/h (0 Bft)
25.09.2016 12:35 19,9 C 26,1 C 19,1 C 21,8 C 21,8 C 1,9 C 65 % 76 % 50 % 1020,0 hPa 0,0 l/m 1,0 km/h (0 Bft) N-NO 22 0 min 13,1 C 21,8 C 2,6 km/h (1 Bft)
25.09.2016 12:40 20,0 C 26,1 C 19,2 C 23,7 C 23,7 C 3,7 C 65 % 75 % 97 % 1020,0 hPa 0,0 l/m 0,5 km/h (0 Bft) S-SW 202 5 min 13,2 C 23,7 C 0,0 km/h (0 Bft)
25.09.2016 12:45 20,4 C 26,2 C 20,0 C 25,7 C 25,7 C 5,3 C 63 % 73 % 100 % 1019,6 hPa 0,0 l/m 1,0 km/h (0 Bft) O-NO 67 5 min 13,1 C 25,7 C 2,7 km/h (1 Bft)
25.09.2016 12:50 20,7 C 26,2 C 21,1 C 26,4 C 26,4 C 5,7 C 62 % 72 % 100 % 1019,6 hPa 0,0 l/m 1,4 km/h (1 Bft) NO 45 5 min 13,2 C 26,4 C 5,5 km/h (1 Bft)
25.09.2016 12:55 20,8 C 26,2 C 21,1 C 26,1 C 26,1 C 5,3 C 57 % 64 % 100 % 1019,6 hPa 0,0 l/m 3,9 km/h (1 Bft) O-NO 67 5 min 12,0 C 26,1 C 10,1 km/h (2 Bft)
25.09.2016 13:00 20,8 C 26,2 C 20,7 C 25,9 C 25,9 C 5,1 C 58 % 65 % 100 % 1019,6 hPa 0,0 l/m 4,0 km/h (1 Bft) O 90 5 min 12,2 C 25,9 C 2,3 km/h (1 Bft)
25.09.2016 13:05 20,8 C 26,2 C 20,0 C 26,3 C 26,3 C 5,5 C 58 % 66 % 100 % 1019,5 hPa 0,0 l/m 2,1 km/h (1 Bft) N-NO 22 5 min 12,2 C 26,3 C 0,0 km/h (0 Bft)
25.09.2016 13:10 20,9 C 26,2 C 19,9 C 26,7 C 26,7 C 5,8 C 58 % 66 % 100 % 1019,5 hPa 0,0 l/m 1,3 km/h (1 Bft) O-NO 67 5 min 12,3 C 26,7 C 0,0 km/h (0 Bft)
25.09.2016 13:15 21,0 C 26,2 C 19,7 C 27,4 C 27,4 C 6,4 C 58 % 67 % 100 % 1019,5 hPa 0,0 l/m 0,6 km/h (0 Bft) N-NO 22 5 min 12,4 C 27,4 C 4,3 km/h (1 Bft)
25.09.2016 13:20 21,1 C 26,3 C 19,6 C 27,7 C 27,7 C 6,6 C 57 % 67 % 100 % 1019,5 hPa 0,0 l/m 1,0 km/h (0 Bft) O-SO 112 5 min 12,2 C 27,7 C 0,0 km/h (0 Bft)
25.09.2016 13:25 21,1 C 26,3 C 19,5 C 28,3 C 28,3 C 7,2 C 57 % 67 % 100 % 1019,3 hPa 0,0 l/m 1,0 km/h (0 Bft) N-NW 337 5 min 12,2 C 28,3 C 2,1 km/h (1 Bft)
25.09.2016 13:30 21,0 C 26,3 C 19,7 C 28,3 C 28,3 C 7,3 C 56 % 66 % 100 % 1019,3 hPa 0,0 l/m 1,1 km/h (1 Bft) NO 45 5 min 11,9 C 28,3 C 2,3 km/h (1 Bft)
25.09.2016 13:35 21,1 C 26,3 C 19,6 C 27,2 C 27,2 C 6,1 C 55 % 65 % 100 % 1019,3 hPa 0,0 l/m 3,4 km/h (1 Bft) O-NO 67 5 min 11,7 C 27,2 C 5,8 km/h (2 Bft)
25.09.2016 13:40 21,1 C 26,3 C 19,6 C 26,3 C 26,3 C 5,2 C 53 % 64 % 100 % 1019,3 hPa 0,0 l/m 4,8 km/h (1 Bft) O-SO 112 5 min 11,1 C 26,3 C 7,6 km/h (2 Bft)
25.09.2016 13:45 21,0 C 26,3 C 19,6 C 26,4 C 26,4 C 5,4 C 56 % 65 % 100 % 1019,1 hPa 0,0 l/m 3,4 km/h (1 Bft) O-SO 112 5 min 11,9 C 26,4 C 11,4 km/h (2 Bft)
25.09.2016 13:50 21,1 C 26,3 C 19,7 C 27,4 C 27,4 C 6,3 C 56 % 65 % 100 % 1019,1 hPa 0,0 l/m 1,8 km/h (1 Bft) NO 45 5 min 12,0 C 27,4 C 0,0 km/h (0 Bft)
25.09.2016 13:55 21,3 C 26,4 C 19,9 C 27,6 C 27,6 C 6,3 C 55 % 65 % 100 % 1019,1 hPa 0,0 l/m 1,8 km/h (1 Bft) O-NO 67 5 min 11,9 C 27,6 C 7,7 km/h (2 Bft)
25.09.2016 14:00 21,3 C 26,4 C 20,1 C 26,8 C 26,8 C 5,5 C 54 % 63 % 100 % 1019,1 hPa 0,0 l/m 3,5 km/h (1 Bft) O-NO 67 5 min 11,6 C 26,8 C 5,0 km/h (1 Bft)
25.09.2016 14:05 21,3 C 26,4 C 20,0 C 26,3 C 26,3 C 5,0 C 56 % 64 % 100 % 1018,9 hPa 0,0 l/m 3,5 km/h (1 Bft) NO 45 5 min 12,2 C 26,3 C 0,0 km/h (0 Bft)
25.09.2016 14:10 21,3 C 26,4 C 20,0 C 26,6 C 26,6 C 5,3 C 54 % 63 % 100 % 1018,9 hPa 0,0 l/m 2,6 km/h (1 Bft) O-NO 67 5 min 11,6 C 26,6 C 4,8 km/h (1 Bft)
25.09.2016 14:15 21,2 C 26,4 C 20,1 C 26,8 C 26,8 C 5,6 C 56 % 64 % 100 % 1018,9 hPa 0,0 l/m 1,9 km/h (1 Bft) O-NO 67 5 min 12,1 C 26,8 C 1,6 km/h (1 Bft)
25.09.2016 14:20 21,2 C 26,4 C 20,0 C 27,1 C 27,1 C 5,9 C 56 % 65 % 100 % 1018,9 hPa 0,0 l/m 1,3 km/h (1 Bft) O-SO 112 5 min 12,1 C 27,1 C 0,0 km/h (0 Bft)
25.09.2016 14:25 21,2 C 26,4 C 19,8 C 27,2 C 27,2 C 6,0 C 56 % 65 % 100 % 1019,1 hPa 0,0 l/m 0,3 km/h (0 Bft) O-NO 67 5 min 12,1 C 27,2 C 2,1 km/h (1 Bft)
25.09.2016 14:30 21,3 C 26,5 C 19,9 C 27,2 C 27,2 C 5,9 C 55 % 64 % 100 % 1019,1 hPa 0,0 l/m 1,0 km/h (0 Bft) SO 135 5 min 11,9 C 27,2 C 0,0 km/h (0 Bft)
25.09.2016 14:35 21,3 C 26,5 C 20,1 C 27,8 C 27,8 C 6,5 C 56 % 65 % 100 % 1019,1 hPa 0,0 l/m 1,0 km/h (0 Bft) S-SO 157 5 min 12,2 C 27,8 C 3,1 km/h (1 Bft)
25.09.2016 14:40 21,5 C 26,5 C 20,2 C 28,4 C 28,4 C 6,9 C 55 % 65 % 100 % 1019,1 hPa 0,0 l/m 0,3 km/h (0 Bft) W-SW 247 5 min 12,1 C 28,4 C 0,0 km/h (0 Bft)
25.09.2016 14:45 21,6 C 26,5 C 20,3 C 28,9 C 28,9 C 7,3 C 56 % 65 % 100 % 1018,9 hPa 0,0 l/m 0,6 km/h (0 Bft) N-NO 22 5 min 12,4 C 28,9 C 0,0 km/h (0 Bft)
25.09.2016 14:50 21,8 C 26,4 C 20,3 C 29,1 C 29,1 C 7,3 C 54 % 65 % 100 % 1018,9 hPa 0,0 l/m 0,8 km/h (0 Bft) O-SO 112 5 min 12,1 C 29,1 C 1,8 km/h (1 Bft)
25.09.2016 14:55 21,7 C 26,5 C 20,2 C 28,5 C 28,5 C 6,8 C 53 % 65 % 100 % 1018,9 hPa 0,0 l/m 1,8 km/h (1 Bft) N-NO 22 5 min 11,7 C 28,5 C 2,9 km/h (1 Bft)
25.09.2016 15:00 21,6 C 26,5 C 20,3 C 28,3 C 28,3 C 6,7 C 53 % 64 % 100 % 1018,9 hPa 0,0 l/m 2,3 km/h (1 Bft) NO 45 5 min 11,6 C 28,3 C 3,1 km/h (1 Bft)
25.09.2016 15:05 21,7 C 26,5 C 20,3 C 27,6 C 27,6 C 5,9 C 53 % 63 % 100 % 1018,8 hPa 0,0 l/m 3,1 km/h (1 Bft) O-NO 67 5 min 11,7 C 27,6 C 6,4 km/h (2 Bft)
25.09.2016 15:10 21,5 C 26,5 C 20,1 C 26,9 C 26,9 C 5,4 C 51 % 62 % 100 % 1018,8 hPa 0,0 l/m 4,2 km/h (1 Bft) O-NO 67 5 min 10,9 C 26,9 C 3,5 km/h (1 Bft)
25.09.2016 15:15 21,5 C 26,6 C 20,2 C 26,3 C 26,3 C 4,8 C 51 % 62 % 100 % 1018,8 hPa 0,0 l/m 4,3 km/h (1 Bft) O-NO 67 5 min 10,9 C 26,3 C 2,3 km/h (1 Bft)
25.09.2016 15:20 21,6 C 26,5 C 20,3 C 26,3 C 26,3 C 4,7 C 52 % 64 % 100 % 1018,8 hPa 0,0 l/m 3,2 km/h (1 Bft) O-NO 67 5 min 11,3 C 26,3 C 3,5 km/h (1 Bft)
25.09.2016 15:25 21,6 C 26,5 C 20,3 C 26,7 C 26,7 C 5,1 C 51 % 62 % 100 % 1018,7 hPa 0,0 l/m 2,1 km/h (1 Bft) O-NO 67 5 min 11,0 C 26,7 C 4,0 km/h (1 Bft)
25.09.2016 15:30 21,6 C 26,6 C 20,3 C 26,6 C 26,6 C 5,0 C 51 % 62 % 100 % 1018,7 hPa 0,0 l/m 3,2 km/h (1 Bft) O-NO 67 5 min 11,0 C 26,6 C 8,5 km/h (2 Bft)
25.09.2016 15:35 21,5 C 26,7 C 20,2 C 26,3 C 26,3 C 4,8 C 52 % 63 % 100 % 1018,7 hPa 0,0 l/m 3,9 km/h (1 Bft) N-NO 22 5 min 11,2 C 26,3 C 1,9 km/h (1 Bft)
25.09.2016 15:40 21,5 C 26,7 C 20,3 C 26,5 C 26,5 C 5,0 C 52 % 63 % 100 % 1018,7 hPa 0,0 l/m 3,9 km/h (1 Bft) NO 45 5 min 11,2 C 26,5 C 6,0 km/h (2 Bft)
25.09.2016 15:45 21,4 C 26,7 C 20,2 C 26,1 C 26,1 C 4,7 C 51 % 63 % 100 % 1018,6 hPa 0,0 l/m 4,0 km/h (1 Bft) O-SO 112 5 min 10,8 C 26,1 C 3,4 km/h (1 Bft)
25.09.2016 15:50 21,5 C 26,7 C 20,3 C 26,2 C 26,2 C 4,7 C 52 % 63 % 100 % 1018,6 hPa 0,0 l/m 3,9 km/h (1 Bft) O 90 5 min 11,2 C 26,2 C 2,6 km/h (1 Bft)
25.09.2016 15:55 21,5 C 26,7 C 20,3 C 26,3 C 26,3 C 4,8 C 51 % 62 % 100 % 1018,6 hPa 0,0 l/m 2,9 km/h (1 Bft) O-NO 67 5 min 10,9 C 26,3 C 5,0 km/h (1 Bft)
25.09.2016 16:00 21,4 C 26,7 C 20,3 C 26,3 C 26,3 C 4,9 C 51 % 61 % 100 % 1018,6 hPa 0,0 l/m 3,4 km/h (1 Bft) O-SO 112 5 min 10,8 C 26,3 C 2,9 km/h (1 Bft)
25.09.2016 16:05 21,4 C 26,7 C 20,4 C 26,1 C 26,1 C 4,7 C 51 % 61 % 100 % 1018,5 hPa 0,0 l/m 3,5 km/h (1 Bft) O-NO 67 5 min 10,8 C 26,1 C 2,9 km/h (1 Bft)
25.09.2016 16:10 21,5 C 26,7 C 20,5 C 26,3 C 26,3 C 4,8 C 51 % 61 % 100 % 1018,5 hPa 0,0 l/m 2,6 km/h (1 Bft) O-NO 67 5 min 10,9 C 26,3 C 4,7 km/h (1 Bft)
25.09.2016 16:15 21,5 C 26,8 C 20,3 C 26,2 C 26,2 C 4,7 C 52 % 62 % 100 % 1018,5 hPa 0,0 l/m 2,7 km/h (1 Bft) NO 45 5 min 11,2 C 26,2 C 4,8 km/h (1 Bft)
25.09.2016 16:20 21,5 C 26,8 C 20,3 C 26,0 C 26,0 C 4,5 C 52 % 61 % 100 % 1018,5 hPa 0,0 l/m 3,4 km/h (1 Bft) O-NO 67 5 min 11,2 C 26,0 C 2,3 km/h (1 Bft)
25.09.2016 16:25 21,5 C 26,8 C 20,4 C 26,3 C 26,3 C 4,8 C 52 % 60 % 100 % 1018,5 hPa 0,0 l/m 2,3 km/h (1 Bft) N-NW 337 5 min 11,2 C 26,3 C 0,0 km/h (0 Bft)
25.09.2016 16:30 21,5 C 26,8 C 20,4 C 26,6 C 26,6 C 5,1 C 52 % 61 % 100 % 1018,5 hPa 0,0 l/m 1,3 km/h (1 Bft) O 90 5 min 11,2 C 26,6 C 1,8 km/h (1 Bft)
25.09.2016 16:35 21,4 C 26,8 C 20,3 C 27,2 C 27,2 C 5,8 C 53 % 62 % 100 % 1018,5 hPa 0,0 l/m 0,8 km/h (0 Bft) O-NO 67 5 min 11,4 C 27,2 C 3,2 km/h (1 Bft)
25.09.2016 16:40 21,5 C 26,8 C 20,2 C 27,0 C 27,0 C 5,5 C 52 % 63 % 100 % 1018,5 hPa 0,0 l/m 0,8 km/h (0 Bft) NO 45 5 min 11,2 C 27,0 C 0,0 km/h (0 Bft)
25.09.2016 16:45 21,5 C 26,9 C 20,1 C 26,9 C 26,9 C 5,4 C 52 % 63 % 100 % 1018,3 hPa 0,0 l/m 1,6 km/h (1 Bft) O-SO 112 5 min 11,2 C 26,9 C 4,2 km/h (1 Bft)
25.09.2016 16:50 21,4 C 26,9 C 20,2 C 26,5 C 26,5 C 5,1 C 52 % 62 % 100 % 1018,3 hPa 0,0 l/m 2,6 km/h (1 Bft) O-NO 67 5 min 11,1 C 26,5 C 5,5 km/h (1 Bft)
25.09.2016 16:55 21,5 C 26,9 C 20,3 C 25,9 C 25,9 C 4,4 C 52 % 62 % 100 % 1018,3 hPa 0,0 l/m 3,4 km/h (1 Bft) O 90 5 min 11,2 C 25,9 C 3,5 km/h (1 Bft)
25.09.2016 17:00 21,5 C 26,9 C 20,1 C 25,3 C 25,3 C 3,8 C 52 % 63 % 100 % 1018,3 hPa 0,0 l/m 3,1 km/h (1 Bft) NO 45 5 min 11,2 C 25,3 C 4,5 km/h (1 Bft)
25.09.2016 17:05 21,3 C 27,0 C 20,0 C 24,5 C 24,5 C 3,2 C 53 % 63 % 84 % 1018,2 hPa 0,0 l/m 3,4 km/h (1 Bft) O-NO 67 5 min 11,3 C 24,5 C 2,7 km/h (1 Bft)
25.09.2016 17:10 21,3 C 27,0 C 19,9 C 23,7 C 23,7 C 2,4 C 54 % 64 % 63 % 1018,2 hPa 0,0 l/m 3,2 km/h (1 Bft) O-NO 67 0 min 11,6 C 23,7 C 2,7 km/h (1 Bft)
25.09.2016 17:15 21,1 C 27,0 C 19,6 C 22,8 C 22,8 C 1,7 C 55 % 65 % 45 % 1018,2 hPa 0,0 l/m 2,9 km/h (1 Bft) NO 45 0 min 11,7 C 22,8 C 3,1 km/h (1 Bft)
25.09.2016 17:20 20,9 C 27,1 C 19,5 C 22,2 C 22,2 C 1,3 C 55 % 65 % 34 % 1018,2 hPa 0,0 l/m 3,1 km/h (1 Bft) NO 45 0 min 11,5 C 22,2 C 4,2 km/h (1 Bft)
25.09.2016 17:25 20,8 C 27,1 C 19,3 C 21,5 C 21,5 C 0,7 C 56 % 66 % 18 % 1018,3 hPa 0,0 l/m 2,1 km/h (1 Bft) O 90 0 min 11,7 C 21,5 C 1,8 km/h (1 Bft)
25.09.2016 17:30 20,7 C 27,1 C 19,2 C 21,2 C 21,2 C 0,5 C 56 % 66 % 13 % 1018,3 hPa 0,0 l/m 1,4 km/h (1 Bft) O 90 0 min 11,6 C 21,2 C 2,1 km/h (1 Bft)
25.09.2016 17:35 20,5 C 27,1 C 19,1 C 20,8 C 20,8 C 0,3 C 57 % 67 % 8 % 1018,3 hPa 0,0 l/m 1,6 km/h (1 Bft) O-NO 67 0 min 11,7 C 20,8 C 3,1 km/h (1 Bft)
25.09.2016 17:40 20,4 C 27,1 C 19,1 C 20,7 C 20,7 C 0,3 C 57 % 67 % 8 % 1018,3 hPa 0,0 l/m 2,3 km/h (1 Bft) O-NO 67 0 min 11,6 C 20,7 C 2,7 km/h (1 Bft)
25.09.2016 17:45 20,4 C 27,1 C 18,8 C 20,5 C 20,5 C 0,1 C 57 % 68 % 3 % 1018,2 hPa 0,0 l/m 2,6 km/h (1 Bft) O-NO 67 0 min 11,6 C 20,5 C 2,4 km/h (1 Bft)
25.09.2016 17:50 20,3 C 27,1 C 18,7 C 20,3 C 20,3 C 0,0 C 58 % 68 % 0 % 1018,2 hPa 0,0 l/m 2,1 km/h (1 Bft) N-NO 22 0 min 11,8 C 20,3 C 0,0 km/h (0 Bft)
25.09.2016 17:55 20,2 C 27,1 C 18,5 C 20,1 C 20,0 C 0,0 C 59 % 69 % 0 % 1018,2 hPa 0,0 l/m 0,5 km/h (0 Bft) NO 45 0 min 11,9 C 20,0 C 0,0 km/h (0 Bft)
25.09.2016 18:00 20,0 C 27,1 C 18,5 C 19,9 C 19,8 C 0,0 C 60 % 70 % 0 % 1018,2 hPa 0,0 l/m 0,0 km/h (0 Bft) NO 45 0 min 12,0 C 19,8 C 0,0 km/h (0 Bft)
25.09.2016 18:05 19,8 C 27,1 C 18,3 C 19,6 C 19,3 C 0,0 C 61 % 71 % 0 % 1018,4 hPa 0,0 l/m 0,0 km/h (0 Bft) NO 45 0 min 12,1 C 19,3 C 0,0 km/h (0 Bft)
25.09.2016 18:10 19,6 C 27,1 C 18,1 C 19,4 C 19,1 C 0,0 C 61 % 71 % 0 % 1018,4 hPa 0,0 l/m 0,0 km/h (0 Bft) NO 45 0 min 11,9 C 19,1 C 0,0 km/h (0 Bft)
25.09.2016 18:15 19,5 C 27,2 C 17,9 C 19,3 C 18,8 C 0,0 C 62 % 72 % 0 % 1018,4 hPa 0,0 l/m 0,0 km/h (0 Bft) NO 45 0 min 12,0 C 18,8 C 0,0 km/h (0 Bft)
25.09.2016 18:20 19,3 C 27,2 C 17,7 C 19,0 C 18,4 C 0,0 C 63 % 73 % 0 % 1018,4 hPa 0,0 l/m 0,0 km/h (0 Bft) NO 45 0 min 12,1 C 18,4 C 0,0 km/h (0 Bft)
25.09.2016 18:25 18,9 C 27,2 C 17,2 C 18,6 C 18,0 C 0,0 C 64 % 74 % 0 % 1018,4 hPa 0,0 l/m 0,0 km/h (0 Bft) NO 45 0 min 11,9 C 18,0 C 0,0 km/h (0 Bft)
25.09.2016 18:30 18,7 C 27,2 C 17,2 C 18,3 C 17,6 C 0,0 C 64 % 74 % 0 % 1018,4 hPa 0,0 l/m 0,0 km/h (0 Bft) NO 45 0 min 11,7 C 17,6 C 0,0 km/h (0 Bft)
25.09.2016 18:35 18,4 C 27,2 C 17,0 C 18,0 C 17,2 C 0,0 C 65 % 75 % 0 % 1018,4 hPa 0,0 l/m 0,0 km/h (0 Bft) NO 45 0 min 11,7 C 17,2 C 0,0 km/h (0 Bft)
25.09.2016 18:40 18,2 C 27,2 C 16,8 C 17,8 C 16,9 C 0,0 C 66 % 75 % 0 % 1018,4 hPa 0,0 l/m 0,0 km/h (0 Bft) NO 45 0 min 11,7 C 16,9 C 0,0 km/h (0 Bft)
25.09.2016 18:45 17,8 C 27,2 C 16,7 C 17,3 C 16,3 C 0,0 C 66 % 76 % 0 % 1018,1 hPa 0,0 l/m 0,0 km/h (0 Bft) NO 45 0 min 11,4 C 16,3 C 0,0 km/h (0 Bft)
25.09.2016 18:50 17,7 C 27,2 C 16,7 C 17,1 C 16,0 C 0,0 C 66 % 77 % 0 % 1018,1 hPa 0,0 l/m 0,0 km/h (0 Bft) NO 45 0 min 11,3 C 16,0 C 0,0 km/h (0 Bft)
25.09.2016 18:55 17,3 C 27,2 C 16,4 C 16,7 C 15,6 C 0,0 C 67 % 77 % 0 % 1018,1 hPa 0,0 l/m 0,0 km/h (0 Bft) NO 45 0 min 11,1 C 15,6 C 0,0 km/h (0 Bft)
25.09.2016 19:00 17,1 C 27,2 C 16,1 C 16,5 C 15,3 C 0,0 C 69 % 77 % 0 % 1018,1 hPa 0,0 l/m 0,0 km/h (0 Bft) NO 45 0 min 11,4 C 15,3 C 0,0 km/h (0 Bft)
25.09.2016 19:05 16,8 C 27,3 C 16,0 C 16,2 C 15,0 C 0,0 C 69 % 78 % 0 % 1018,2 hPa 0,0 l/m 0,0 km/h (0 Bft) NO 45 0 min 11,1 C 15,0 C 0,0 km/h (0 Bft)
25.09.2016 19:10 16,6 C 27,3 C 15,8 C 16,0 C 14,8 C 0,0 C 70 % 79 % 0 % 1018,2 hPa 0,0 l/m 0,0 km/h (0 Bft) NO 45 0 min 11,1 C 14,8 C 0,0 km/h (0 Bft)
25.09.2016 19:15 16,4 C 27,3 C 15,5 C 15,8 C 14,5 C 0,0 C 71 % 79 % 0 % 1018,2 hPa 0,0 l/m 0,0 km/h (0 Bft) NO 45 0 min 11,1 C 14,5 C 0,0 km/h (0 Bft)
25.09.2016 19:20 16,3 C 27,3 C 15,3 C 15,6 C 14,3 C 0,0 C 71 % 80 % 0 % 1018,2 hPa 0,0 l/m 0,0 km/h (0 Bft) NO 45 0 min 11,0 C 14,3 C 0,0 km/h (0 Bft)
25.09.2016 19:25 15,9 C 27,3 C 15,2 C 15,3 C 14,0 C 0,0 C 72 % 80 % 0 % 1018,2 hPa 0,0 l/m 0,0 km/h (0 Bft) NO 45 0 min 10,9 C 14,0 C 0,0 km/h (0 Bft)
25.09.2016 19:30 15,7 C 27,3 C 14,9 C 15,1 C 13,9 C 0,0 C 73 % 80 % 0 % 1018,2 hPa 0,0 l/m 0,0 km/h (0 Bft) O-NO 67 0 min 10,9 C 13,9 C 0,0 km/h (0 Bft)
25.09.2016 19:35 15,3 C 27,3 C 14,7 C 14,8 C 13,7 C 0,0 C 74 % 81 % 0 % 1018,2 hPa 0,0 l/m 0,0 km/h (0 Bft) O-NO 67 0 min 10,7 C 13,7 C 0,0 km/h (0 Bft)
25.09.2016 19:40 15,1 C 27,3 C 14,5 C 14,6 C 13,5 C 0,0 C 74 % 81 % 0 % 1018,2 hPa 0,0 l/m 0,0 km/h (0 Bft) O-NO 67 0 min 10,5 C 13,5 C 0,0 km/h (0 Bft)
25.09.2016 19:45 14,8 C 27,3 C 14,3 C 14,3 C 13,3 C 0,0 C 75 % 81 % 0 % 1018,4 hPa 0,0 l/m 0,0 km/h (0 Bft) O-NO 67 0 min 10,4 C 13,3 C 0,0 km/h (0 Bft)
25.09.2016 19:50 14,7 C 27,3 C 14,1 C 14,2 C 13,1 C 0,0 C 75 % 82 % 0 % 1018,4 hPa 0,0 l/m 0,0 km/h (0 Bft) O-NO 67 0 min 10,3 C 13,1 C 0,0 km/h (0 Bft)
25.09.2016 19:55 14,5 C 27,3 C 14,0 C 14,0 C 12,9 C 0,0 C 75 % 83 % 0 % 1018,4 hPa 0,0 l/m 0,0 km/h (0 Bft) O-NO 67 0 min 10,1 C 12,9 C 0,0 km/h (0 Bft)
25.09.2016 20:00 14,3 C 27,3 C 13,9 C 13,8 C 12,8 C 0,0 C 76 % 83 % 0 % 1018,4 hPa 0,0 l/m 0,0 km/h (0 Bft) O-NO 67 0 min 10,1 C 12,8 C 0,0 km/h (0 Bft)
25.09.2016 20:05 14,0 C 27,4 C 13,7 C 13,5 C 12,5 C 0,0 C 76 % 83 % 0 % 1018,6 hPa 0,0 l/m 0,0 km/h (0 Bft) O-NO 67 0 min 9,8 C 12,5 C 0,0 km/h (0 Bft)
25.09.2016 20:10 13,7 C 27,4 C 13,6 C 13,3 C 12,5 C 0,0 C 77 % 83 % 0 % 1018,6 hPa 0,0 l/m 0,0 km/h (0 Bft) O-NO 67 0 min 9,7 C 12,5 C 0,0 km/h (0 Bft)
25.09.2016 20:15 13,6 C 27,4 C 13,5 C 13,2 C 12,3 C 0,0 C 77 % 84 % 0 % 1018,6 hPa 0,0 l/m 0,0 km/h (0 Bft) O-NO 67 0 min 9,6 C 12,3 C 0,0 km/h (0 Bft)
25.09.2016 20:20 13,5 C 27,5 C 13,4 C 13,1 C 12,3 C 0,0 C 78 % 84 % 0 % 1018,6 hPa 0,0 l/m 0,0 km/h (0 Bft) O-NO 67 0 min 9,7 C 12,3 C 0,0 km/h (0 Bft)
25.09.2016 20:25 13,1 C 27,5 C 13,3 C 12,8 C 12,3 C 0,0 C 79 % 85 % 0 % 1018,5 hPa 0,0 l/m 0,2 km/h (0 Bft) O-NO 67 0 min 9,5 C 12,3 C 1,8 km/h (1 Bft)
25.09.2016 20:30 12,9 C 27,5 C 13,2 C 12,7 C 12,3 C 0,0 C 79 % 85 % 0 % 1018,5 hPa 0,0 l/m 0,2 km/h (0 Bft) O-NO 67 0 min 9,3 C 12,3 C 0,0 km/h (0 Bft)
25.09.2016 20:35 12,7 C 27,5 C 13,1 C 12,6 C 12,3 C 0,0 C 79 % 85 % 0 % 1018,5 hPa 0,0 l/m 0,2 km/h (0 Bft) O-NO 67 0 min 9,2 C 12,3 C 0,0 km/h (0 Bft)
25.09.2016 20:40 12,7 C 27,5 C 13,1 C 12,5 C 12,1 C 0,0 C 79 % 85 % 0 % 1018,5 hPa 0,0 l/m 0,0 km/h (0 Bft) N-NW 337 0 min 9,2 C 12,1 C 0,0 km/h (0 Bft)
25.09.2016 20:45 12,4 C 27,5 C 13,1 C 12,3 C 12,0 C 0,0 C 80 % 85 % 0 % 1018,5 hPa 0,0 l/m 0,0 km/h (0 Bft) NO 45 0 min 9,0 C 12,0 C 0,0 km/h (0 Bft)
25.09.2016 20:50 12,3 C 27,5 C 12,9 C 12,2 C 12,0 C 0,0 C 80 % 85 % 0 % 1018,5 hPa 0,0 l/m 0,0 km/h (0 Bft) O 90 0 min 8,9 C 12,0 C 0,0 km/h (0 Bft)
25.09.2016 20:55 12,1 C 27,5 C 12,9 C 12,0 C 11,8 C 0,0 C 81 % 86 % 0 % 1018,5 hPa 0,0 l/m 0,0 km/h (0 Bft) NW 315 0 min 8,9 C 11,8 C 0,0 km/h (0 Bft)
25.09.2016 21:00 12,0 C 27,5 C 12,9 C 11,9 C 11,7 C 0,0 C 81 % 86 % 0 % 1018,5 hPa 0,0 l/m 0,0 km/h (0 Bft) W-SW 247 0 min 8,8 C 11,7 C 0,0 km/h (0 Bft)
25.09.2016 21:05 11,8 C 27,5 C 12,8 C 11,7 C 11,4 C 0,0 C 80 % 86 % 0 % 1018,4 hPa 0,0 l/m 0,0 km/h (0 Bft) W-SW 247 0 min 8,5 C 11,4 C 0,0 km/h (0 Bft)
25.09.2016 21:10 11,7 C 27,5 C 12,7 C 11,5 C 11,2 C 0,0 C 80 % 86 % 0 % 1018,4 hPa 0,0 l/m 0,0 km/h (0 Bft) W-SW 247 0 min 8,4 C 11,2 C 0,0 km/h (0 Bft)
25.09.2016 21:15 11,6 C 27,5 C 12,7 C 11,5 C 11,3 C 0,0 C 81 % 87 % 0 % 1018,4 hPa 0,0 l/m 0,0 km/h (0 Bft) NO 45 0 min 8,5 C 11,3 C 0,0 km/h (0 Bft)
25.09.2016 21:20 11,5 C 27,5 C 12,5 C 11,5 C 11,4 C 0,0 C 82 % 87 % 0 % 1018,4 hPa 0,0 l/m 0,0 km/h (0 Bft) NO 45 0 min 8,5 C 11,4 C 0,0 km/h (0 Bft)
25.09.2016 21:25 11,3 C 27,4 C 12,5 C 11,3 C 11,2 C 0,0 C 82 % 87 % 0 % 1018,6 hPa 0,0 l/m 0,0 km/h (0 Bft) W 270 0 min 8,3 C 11,2 C 0,0 km/h (0 Bft)
25.09.2016 21:30 11,2 C 27,5 C 12,5 C 11,2 C 11,1 C 0,0 C 82 % 87 % 0 % 1018,6 hPa 0,0 l/m 0,0 km/h (0 Bft) N-NO 22 0 min 8,2 C 11,1 C 0,0 km/h (0 Bft)
25.09.2016 21:35 11,1 C 27,4 C 12,3 C 11,1 C 11,1 C 0,0 C 82 % 87 % 0 % 1018,6 hPa 0,0 l/m 0,0 km/h (0 Bft) NO 45 0 min 8,1 C 11,1 C 0,0 km/h (0 Bft)
25.09.2016 21:40 11,1 C 27,4 C 12,3 C 11,1 C 11,0 C 0,0 C 82 % 87 % 0 % 1018,6 hPa 0,0 l/m 0,0 km/h (0 Bft) NO 45 0 min 8,1 C 11,0 C 0,0 km/h (0 Bft)
25.09.2016 21:45 10,9 C 27,4 C 12,1 C 11,0 C 11,0 C 0,1 C 82 % 87 % 0 % 1018,8 hPa 0,0 l/m 0,0 km/h (0 Bft) NO 45 0 min 7,9 C 11,0 C 0,0 km/h (0 Bft)
25.09.2016 21:50 10,9 C 27,4 C 12,1 C 11,0 C 11,0 C 0,1 C 83 % 87 % 0 % 1018,8 hPa 0,0 l/m 0,0 km/h (0 Bft) O 90 0 min 8,1 C 11,0 C 0,0 km/h (0 Bft)
25.09.2016 21:55 10,8 C 27,4 C 12,1 C 11,0 C 11,0 C 0,2 C 83 % 88 % 0 % 1018,8 hPa 0,0 l/m 0,0 km/h (0 Bft) W-SW 247 0 min 8,0 C 11,0 C 0,0 km/h (0 Bft)
25.09.2016 22:00 10,8 C 27,4 C 12,1 C 10,9 C 10,9 C 0,1 C 83 % 88 % 0 % 1018,8 hPa 0,0 l/m 0,0 km/h (0 Bft) W 270 0 min 8,0 C 10,9 C 0,0 km/h (0 Bft)
25.09.2016 22:05 10,7 C 27,3 C 12,0 C 10,7 C 10,6 C 0,0 C 83 % 88 % 0 % 1018,4 hPa 0,0 l/m 0,0 km/h (0 Bft) W 270 0 min 7,9 C 10,6 C 0,0 km/h (0 Bft)
25.09.2016 22:10 10,5 C 27,3 C 11,9 C 10,6 C 10,6 C 0,1 C 83 % 88 % 0 % 1018,4 hPa 0,0 l/m 0,0 km/h (0 Bft) W 270 0 min 7,7 C 10,6 C 0,0 km/h (0 Bft)
25.09.2016 22:15 10,5 C 27,4 C 11,9 C 10,6 C 10,6 C 0,1 C 83 % 88 % 0 % 1018,4 hPa 0,0 l/m 0,0 km/h (0 Bft) W 270 0 min 7,7 C 10,6 C 0,0 km/h (0 Bft)
25.09.2016 22:20 10,3 C 27,4 C 11,7 C 10,6 C 10,6 C 0,3 C 83 % 88 % 0 % 1018,4 hPa 0,0 l/m 0,0 km/h (0 Bft) W 270 0 min 7,5 C 10,6 C 0,0 km/h (0 Bft)
25.09.2016 22:25 10,2 C 27,4 C 11,6 C 10,4 C 10,4 C 0,2 C 83 % 88 % 0 % 1018,9 hPa 0,0 l/m 0,0 km/h (0 Bft) W 270 0 min 7,4 C 10,4 C 0,0 km/h (0 Bft)
25.09.2016 22:30 10,2 C 27,4 C 11,7 C 10,4 C 10,4 C 0,2 C 83 % 88 % 0 % 1018,9 hPa 0,0 l/m 0,0 km/h (0 Bft) W 270 0 min 7,4 C 10,4 C 0,0 km/h (0 Bft)
25.09.2016 22:35 10,0 C 27,3 C 11,4 C 10,3 C 10,3 C 0,3 C 83 % 88 % 0 % 1018,9 hPa 0,0 l/m 0,0 km/h (0 Bft) W 270 0 min 7,2 C 10,3 C 0,0 km/h (0 Bft)
25.09.2016 22:40 10,0 C 27,3 C 11,4 C 10,3 C 10,3 C 0,3 C 84 % 89 % 0 % 1018,9 hPa 0,0 l/m 0,0 km/h (0 Bft) W 270 0 min 7,4 C 10,3 C 0,0 km/h (0 Bft)
25.09.2016 22:45 10,0 C 27,4 C 11,5 C 10,4 C 10,4 C 0,4 C 84 % 89 % 0 % 1019,2 hPa 0,0 l/m 0,0 km/h (0 Bft) O-NO 67 0 min 7,4 C 10,4 C 0,0 km/h (0 Bft)
25.09.2016 22:50 10,0 C 27,4 C 11,5 C 10,4 C 10,4 C 0,4 C 84 % 89 % 0 % 1019,2 hPa 0,0 l/m 0,0 km/h (0 Bft) O-NO 67 0 min 7,4 C 10,4 C 0,0 km/h (0 Bft)
25.09.2016 22:55 9,9 C 27,4 C 11,5 C 10,2 C 10,2 C 0,3 C 84 % 89 % 0 % 1019,2 hPa 0,0 l/m 0,0 km/h (0 Bft) O-NO 67 0 min 7,3 C 10,2 C 0,0 km/h (0 Bft)
25.09.2016 23:00 9,9 C 27,4 C 11,4 C 10,1 C 10,1 C 0,2 C 84 % 89 % 0 % 1019,2 hPa 0,0 l/m 0,0 km/h (0 Bft) W-SW 247 0 min 7,3 C 10,1 C 0,0 km/h (0 Bft)
25.09.2016 23:05 9,7 C 27,4 C 11,2 C 10,1 C 10,1 C 0,4 C 84 % 89 % 0 % 1018,6 hPa 0,0 l/m 0,0 km/h (0 Bft) O-SO 112 0 min 7,1 C 10,1 C 0,0 km/h (0 Bft)
25.09.2016 23:10 9,7 C 27,4 C 11,2 C 10,1 C 10,1 C 0,4 C 84 % 89 % 0 % 1018,6 hPa 0,0 l/m 0,0 km/h (0 Bft) O 90 0 min 7,1 C 10,1 C 0,0 km/h (0 Bft)
25.09.2016 23:15 9,7 C 27,4 C 11,1 C 10,0 C 10,0 C 0,3 C 84 % 89 % 0 % 1018,6 hPa 0,0 l/m 0,0 km/h (0 Bft) O 90 0 min 7,1 C 10,0 C 0,0 km/h (0 Bft)
25.09.2016 23:20 9,5 C 27,4 C 11,1 C 9,9 C 9,9 C 0,4 C 84 % 89 % 0 % 1018,6 hPa 0,0 l/m 0,0 km/h (0 Bft) O 90 0 min 6,9 C 9,9 C 0,0 km/h (0 Bft)
25.09.2016 23:25 9,5 C 27,4 C 11,1 C 9,8 C 9,8 C 0,3 C 85 % 89 % 0 % 1018,6 hPa 0,0 l/m 0,0 km/h (0 Bft) O 90 0 min 7,1 C 9,8 C 0,0 km/h (0 Bft)
25.09.2016 23:30 9,3 C 27,4 C 10,9 C 9,8 C 9,8 C 0,5 C 85 % 89 % 0 % 1018,6 hPa 0,0 l/m 0,0 km/h (0 Bft) O 90 0 min 6,9 C 9,8 C 0,0 km/h (0 Bft)
25.09.2016 23:35 9,5 C 27,4 C 10,8 C 9,9 C 9,9 C 0,4 C 85 % 89 % 0 % 1018,6 hPa 0,0 l/m 0,0 km/h (0 Bft) O 90 0 min 7,1 C 9,9 C 0,0 km/h (0 Bft)
25.09.2016 23:40 9,3 C 27,4 C 10,9 C 9,8 C 9,8 C 0,5 C 85 % 89 % 0 % 1018,6 hPa 0,0 l/m 0,0 km/h (0 Bft) O 90 0 min 6,9 C 9,8 C 0,0 km/h (0 Bft)
25.09.2016 23:45 9,3 C 27,3 C 10,8 C 9,6 C 9,6 C 0,3 C 85 % 89 % 0 % 1018,7 hPa 0,0 l/m 0,0 km/h (0 Bft) NW 315 0 min 6,9 C 9,6 C 0,0 km/h (0 Bft)
25.09.2016 23:50 9,3 C 27,3 C 10,8 C 9,6 C 9,6 C 0,3 C 85 % 89 % 0 % 1018,7 hPa 0,0 l/m 0,0 km/h (0 Bft) W 270 0 min 6,9 C 9,6 C 0,0 km/h (0 Bft)
25.09.2016 23:55 9,1 C 27,3 C 10,7 C 9,3 C 9,3 C 0,2 C 85 % 89 % 0 % 1018,7 hPa 0,0 l/m 0,0 km/h (0 Bft) W-NW 292 0 min 6,7 C 9,3 C 0,0 km/h (0 Bft)
_ Min-Zeit 06:25 10:40 07:05 06:55 06:55 17:50 15:10 16:25 00:00 18:45 - 00:00 - - - 06:25 06:55 00:00
Minimum _ 5,9 C 26,1 C 7,9 C 6,4 C 6,4 C 0,0 C 51 % 60 % 0 % 1018,1 hPa - 0,0 km/h (0 Bft) - - - 3,9 C 6,4 C 0,0 km/h (0 Bft)
_ Max-Zeit 14:50 00:00 12:50 14:50 14:50 14:50 09:05 01:45 08:05 00:00 00:00 13:40 - - 07:45 11:30 14:50 13:45
Maximum _ 21,8 C 27,8 C 21,1 C 29,1 C 29,1 C 7,3 C 90 % 91 % 100 % 1021,6 hPa 0,0 l/m 4,8 km/h
O-SO (1 Bft)
- - 10 min 13,7 C 29,1 C 11,4 km/h
O-SO (2 Bft)
Durchschnitt _ 12,9 C 27,0 C 13,5 C 14,6 C 14,5 C 1,8 C 77 % 83 % 34 % 1019,9 hPa #0,0 l/m 0,6 km/h (0 Bft) O-NO - #6:35 h 8,6 C 14,5 C 1,0 km/h (0 Bft)
2016 www.wetterstation-wechselburg.de